createdAt,value
2017-12-14T00:00:36.697Z,98099.56
2017-12-14T00:01:39.157Z,98098.30
2017-12-14T00:02:41.603Z,98085.55
2017-12-14T00:03:44.073Z,98092.75
2017-12-14T00:04:46.523Z,98088.59
2017-12-14T00:05:48.992Z,98082.61
2017-12-14T00:06:51.438Z,98089.30
2017-12-14T00:07:53.907Z,98088.45
2017-12-14T00:08:56.362Z,98098.55
2017-12-14T00:09:58.823Z,98089.64
2017-12-14T00:11:01.270Z,98090.22
2017-12-14T00:12:03.719Z,98092.33
2017-12-14T00:13:06.190Z,98091.88
2017-12-14T00:14:08.677Z,98086.91
2017-12-14T00:15:11.140Z,98095.70
2017-12-14T00:16:13.639Z,98086.95
2017-12-14T00:17:16.096Z,98086.56
2017-12-14T00:18:18.546Z,98083.13
2017-12-14T00:19:20.994Z,98098.72
2017-12-14T00:20:23.446Z,98091.95
2017-12-14T00:21:25.910Z,98091.53
2017-12-14T00:22:28.372Z,98092.62
2017-12-14T00:23:30.833Z,98096.83
2017-12-14T00:24:32.776Z,98095.78
2017-12-14T00:25:35.249Z,98101.70
2017-12-14T00:26:37.710Z,98101.28
2017-12-14T00:27:40.154Z,98105.45
2017-12-14T00:28:42.613Z,98102.09
2017-12-14T00:29:45.071Z,98105.88
2017-12-14T00:30:47.515Z,98097.00
2017-12-14T00:31:49.972Z,98095.23
2017-12-14T00:32:52.437Z,98097.45
2017-12-14T00:33:54.891Z,98093.84
2017-12-14T00:34:57.342Z,98093.80
2017-12-14T00:35:59.791Z,98092.58
2017-12-14T00:37:02.329Z,98097.23
2017-12-14T00:38:04.793Z,98098.45
2017-12-14T00:39:07.261Z,98092.36
2017-12-14T00:40:09.814Z,98103.11
2017-12-14T00:41:12.306Z,98101.89
2017-12-14T00:42:14.754Z,98101.84
2017-12-14T00:43:17.253Z,98101.77
2017-12-14T00:44:19.705Z,98096.33
2017-12-14T00:45:22.151Z,98097.52
2017-12-14T00:46:24.598Z,98086.02
2017-12-14T00:47:27.061Z,98075.80
2017-12-14T00:48:29.510Z,98076.09
2017-12-14T00:49:31.963Z,98067.83
2017-12-14T00:50:34.418Z,98054.32
2017-12-14T00:51:36.880Z,98057.73
2017-12-14T00:52:39.334Z,98056.05
2017-12-14T00:53:41.788Z,98055.59
2017-12-14T00:54:44.239Z,98051.52
2017-12-14T00:55:46.711Z,98060.38
2017-12-14T00:56:49.165Z,98052.86
2017-12-14T00:57:51.637Z,98061.23
2017-12-14T00:58:54.109Z,98066.44
2017-12-14T00:59:56.558Z,98068.08
2017-12-14T01:00:59.012Z,98070.34
2017-12-14T01:02:01.478Z,98072.45
2017-12-14T01:03:03.933Z,98072.58
2017-12-14T01:04:06.401Z,98075.90
2017-12-14T01:05:08.870Z,98064.87
2017-12-14T01:06:11.344Z,98057.35
2017-12-14T01:07:13.799Z,98062.18
2017-12-14T01:08:16.273Z,98060.25
2017-12-14T01:09:18.735Z,98071.59
2017-12-14T01:10:21.202Z,98064.13
2017-12-14T01:11:23.653Z,98064.87
2017-12-14T01:12:26.142Z,98067.06
2017-12-14T01:13:28.605Z,98062.02
2017-12-14T01:14:31.069Z,98063.24
2017-12-14T01:15:33.528Z,98061.48
2017-12-14T01:16:35.988Z,98064.92
2017-12-14T01:17:38.431Z,98069.64
2017-12-14T01:18:41.804Z,98078.00
2017-12-14T01:19:44.265Z,98072.02
2017-12-14T01:20:46.711Z,98080.02
2017-12-14T01:21:49.154Z,98080.10
2017-12-14T01:22:51.620Z,98077.02
2017-12-14T01:23:54.066Z,98071.31
2017-12-14T01:24:56.556Z,98068.62
2017-12-14T01:25:59.006Z,98072.53
2017-12-14T01:27:01.502Z,98066.05
2017-12-14T01:28:03.940Z,98054.45
2017-12-14T01:29:06.391Z,98048.70
2017-12-14T01:30:08.856Z,98045.53
2017-12-14T01:31:11.306Z,98040.33
2017-12-14T01:32:13.759Z,98035.98
2017-12-14T01:33:16.201Z,98035.63
2017-12-14T01:34:18.661Z,98036.55
2017-12-14T01:35:21.120Z,98031.15
2017-12-14T01:36:23.570Z,98036.94
2017-12-14T01:37:26.038Z,98034.05
2017-12-14T01:38:28.496Z,98046.19
2017-12-14T01:39:30.963Z,98043.41
2017-12-14T01:40:33.412Z,98045.79
2017-12-14T01:41:35.872Z,98046.98
2017-12-14T01:42:38.328Z,98046.41
2017-12-14T01:43:40.793Z,98052.95
2017-12-14T01:44:43.239Z,98048.08
2017-12-14T01:45:45.700Z,98047.81
2017-12-14T01:46:48.164Z,98049.92
2017-12-14T01:47:50.607Z,98046.31
2017-12-14T01:48:53.073Z,98050.34
2017-12-14T01:49:55.519Z,98038.81
2017-12-14T01:50:57.970Z,98037.70
2017-12-14T01:52:00.432Z,98038.08
2017-12-14T01:53:02.894Z,98026.73
2017-12-14T01:54:05.338Z,98034.47
2017-12-14T01:55:07.790Z,98024.53
2017-12-14T01:56:10.240Z,98031.58
2017-12-14T01:57:12.714Z,98030.70
2017-12-14T01:58:15.181Z,98030.51
2017-12-14T01:59:17.630Z,98026.12
2017-12-14T02:00:20.121Z,98031.24
2017-12-14T02:01:22.566Z,98021.16
2017-12-14T02:02:25.014Z,98019.95
2017-12-14T02:03:27.480Z,98009.81
2017-12-14T02:04:29.940Z,98012.72
2017-12-14T02:05:32.388Z,98016.88
2017-12-14T02:06:34.838Z,98011.45
2017-12-14T02:07:37.348Z,98008.34
2017-12-14T02:08:39.770Z,98013.71
2017-12-14T02:09:42.218Z,98007.03
2017-12-14T02:10:44.680Z,98005.81
2017-12-14T02:11:47.133Z,98010.77
2017-12-14T02:12:49.592Z,98005.81
2017-12-14T02:13:52.057Z,98001.39
2017-12-14T02:14:54.526Z,97998.88
2017-12-14T02:15:57.086Z,98000.65
2017-12-14T02:16:59.536Z,97994.66
2017-12-14T02:18:01.985Z,97993.78
2017-12-14T02:19:04.444Z,97991.31
2017-12-14T02:20:06.905Z,97986.14
2017-12-14T02:21:09.363Z,97992.33
2017-12-14T02:22:11.810Z,97986.11
2017-12-14T02:23:14.292Z,97989.57
2017-12-14T02:24:16.769Z,97987.84
2017-12-14T02:25:19.217Z,97990.75
2017-12-14T02:26:21.685Z,97990.73
2017-12-14T02:27:24.225Z,97985.02
2017-12-14T02:28:26.688Z,97983.85
2017-12-14T02:29:29.239Z,97982.55
2017-12-14T02:30:31.682Z,97982.31
2017-12-14T02:31:34.132Z,97979.23
2017-12-14T02:32:36.602Z,97977.88
2017-12-14T02:33:39.059Z,97974.14
2017-12-14T02:34:41.510Z,97976.62
2017-12-14T02:35:43.971Z,97975.08
2017-12-14T02:36:46.423Z,97974.13
2017-12-14T02:37:48.878Z,97971.33
2017-12-14T02:38:51.326Z,97975.07
2017-12-14T02:39:53.785Z,97974.31
2017-12-14T02:40:56.253Z,97975.48
2017-12-14T02:41:58.729Z,97969.65
2017-12-14T02:43:01.197Z,97979.27
2017-12-14T02:44:03.646Z,97974.69
2017-12-14T02:45:06.125Z,97975.25
2017-12-14T02:46:08.594Z,97969.69
2017-12-14T02:47:11.042Z,97970.70
2017-12-14T02:48:13.492Z,97974.91
2017-12-14T02:49:15.957Z,97976.63
2017-12-14T02:50:18.417Z,97970.97
2017-12-14T02:51:20.869Z,97976.59
2017-12-14T02:52:23.332Z,97986.55
2017-12-14T02:53:25.782Z,97988.97
2017-12-14T02:54:28.245Z,97987.34
2017-12-14T02:55:30.695Z,97995.36
2017-12-14T02:56:33.188Z,97997.80
2017-12-14T02:57:35.663Z,98004.09
2017-12-14T02:58:38.126Z,98001.10
2017-12-14T02:59:40.588Z,98004.75
2017-12-14T03:00:43.057Z,98003.69
2017-12-14T03:01:45.506Z,98020.16
2017-12-14T03:02:47.990Z,98024.48
2017-12-14T03:03:50.444Z,98029.22
2017-12-14T03:04:52.984Z,98039.23
2017-12-14T03:05:55.456Z,98035.72
2017-12-14T03:06:57.916Z,98042.87
2017-12-14T03:08:00.407Z,98046.19
2017-12-14T03:09:02.859Z,98048.67
2017-12-14T03:10:05.312Z,98059.15
2017-12-14T03:11:07.778Z,98055.80
2017-12-14T03:12:10.245Z,98057.03
2017-12-14T03:13:12.715Z,98061.08
2017-12-14T03:14:15.188Z,98062.74
2017-12-14T03:15:17.638Z,98062.50
2017-12-14T03:16:20.091Z,98075.65
2017-12-14T03:17:22.547Z,98081.11
2017-12-14T03:18:25.023Z,98078.31
2017-12-14T03:19:27.479Z,98078.59
2017-12-14T03:20:29.948Z,98079.55
2017-12-14T03:21:32.416Z,98079.19
2017-12-14T03:22:34.876Z,98073.28
2017-12-14T03:23:37.346Z,98069.18
2017-12-14T03:24:39.798Z,98067.09
2017-12-14T03:25:42.260Z,98067.23
2017-12-14T03:26:44.714Z,98064.70
2017-12-14T03:27:47.174Z,98063.95
2017-12-14T03:28:49.643Z,98063.56
2017-12-14T03:29:52.089Z,98056.51
2017-12-14T03:30:54.554Z,98057.34
2017-12-14T03:31:57.020Z,98058.41
2017-12-14T03:32:59.474Z,98054.42
2017-12-14T03:34:01.951Z,98044.45
2017-12-14T03:35:04.417Z,98042.01
2017-12-14T03:36:06.864Z,98041.52
2017-12-14T03:37:09.330Z,98046.65
2017-12-14T03:38:11.841Z,98042.61
2017-12-14T03:39:14.263Z,98043.51
2017-12-14T03:40:16.732Z,98043.27
2017-12-14T03:41:19.182Z,98045.06
2017-12-14T03:42:21.646Z,98045.51
2017-12-14T03:43:24.090Z,98047.09
2017-12-14T03:44:26.558Z,98041.24
2017-12-14T03:45:29.002Z,98045.59
2017-12-14T03:46:31.461Z,98053.38
2017-12-14T03:47:33.924Z,98048.19
2017-12-14T03:48:36.378Z,98042.87
2017-12-14T03:49:38.852Z,98053.99
2017-12-14T03:50:41.294Z,98043.20
2017-12-14T03:51:43.779Z,98048.53
2017-12-14T03:52:46.274Z,98054.69
2017-12-14T03:53:48.731Z,98052.42
2017-12-14T03:54:51.228Z,98049.95
2017-12-14T03:55:53.700Z,98054.04
2017-12-14T03:56:56.199Z,98056.84
2017-12-14T03:57:58.664Z,98054.77
2017-12-14T03:59:01.113Z,98070.41
2017-12-14T04:00:03.674Z,98055.72
2017-12-14T04:01:06.136Z,98058.88
2017-12-14T04:02:08.593Z,98051.05
2017-12-14T04:03:11.059Z,98056.23
2017-12-14T04:04:13.510Z,98058.02
2017-12-14T04:05:15.997Z,98061.07
2017-12-14T04:06:18.467Z,98055.81
2017-12-14T04:07:20.914Z,98054.77
2017-12-14T04:08:23.378Z,98061.28
2017-12-14T04:09:25.836Z,98059.67
2017-12-14T04:10:28.313Z,98057.55
2017-12-14T04:11:30.767Z,98058.73
2017-12-14T04:12:33.271Z,98056.13
2017-12-14T04:13:35.724Z,98058.03
2017-12-14T04:14:38.189Z,98059.86
2017-12-14T04:15:40.655Z,98056.38
2017-12-14T04:16:43.121Z,98061.30
2017-12-14T04:17:45.582Z,98075.78
2017-12-14T04:18:48.073Z,98063.67
2017-12-14T04:19:50.532Z,98067.86
2017-12-14T04:20:53.020Z,98079.23
2017-12-14T04:21:55.469Z,98085.27
2017-12-14T04:22:57.918Z,98081.02
2017-12-14T04:24:00.381Z,98082.70
2017-12-14T04:25:02.844Z,98081.86
2017-12-14T04:26:05.314Z,98076.04
2017-12-14T04:27:07.777Z,98079.83
2017-12-14T04:28:10.244Z,98087.69
2017-12-14T04:29:12.711Z,98083.13
2017-12-14T04:30:15.173Z,98092.23
2017-12-14T04:31:17.650Z,98093.92
2017-12-14T04:32:20.114Z,98091.75
2017-12-14T04:33:22.557Z,98093.27
2017-12-14T04:34:25.023Z,98093.76
2017-12-14T04:35:27.475Z,98105.02
2017-12-14T04:36:29.938Z,98101.59
2017-12-14T04:37:32.382Z,98097.72
2017-12-14T04:38:34.831Z,98091.06
2017-12-14T04:39:37.293Z,98100.34
2017-12-14T04:40:39.734Z,98114.03
2017-12-14T04:41:42.198Z,98103.59
2017-12-14T04:42:44.649Z,98104.05
2017-12-14T04:43:47.100Z,98093.89
2017-12-14T04:44:49.662Z,98098.92
2017-12-14T04:45:52.106Z,98105.64
2017-12-14T04:46:54.576Z,98105.63
2017-12-14T04:47:57.026Z,98106.48
2017-12-14T04:48:59.474Z,98098.03
2017-12-14T04:50:01.936Z,98108.09
2017-12-14T04:51:04.419Z,98108.09
2017-12-14T04:52:06.886Z,98126.61
2017-12-14T04:53:09.430Z,98096.37
2017-12-14T04:54:11.885Z,98126.34
2017-12-14T04:55:14.334Z,98121.88
2017-12-14T04:56:16.797Z,98117.75
2017-12-14T04:57:19.284Z,98125.59
2017-12-14T04:58:21.744Z,98114.89
2017-12-14T04:59:24.190Z,98110.99
2017-12-14T05:00:26.655Z,98118.97
2017-12-14T05:01:29.101Z,98120.36
2017-12-14T05:02:31.588Z,98116.39
2017-12-14T05:03:34.045Z,98120.41
2017-12-14T05:04:36.495Z,98126.70
2017-12-14T05:05:38.956Z,98171.92
2017-12-14T05:06:41.414Z,98128.35
2017-12-14T05:07:43.911Z,98146.08
2017-12-14T05:08:46.391Z,98142.30
2017-12-14T05:09:48.856Z,98139.66
2017-12-14T05:10:51.307Z,98146.75
2017-12-14T05:11:53.754Z,98158.05
2017-12-14T05:12:56.240Z,98155.81
2017-12-14T05:13:58.682Z,98162.84
2017-12-14T05:15:01.143Z,98158.28
2017-12-14T05:16:03.594Z,98166.12
2017-12-14T05:17:06.078Z,98171.07
2017-12-14T05:18:08.573Z,98189.86
2017-12-14T05:19:11.032Z,98170.95
2017-12-14T05:20:13.496Z,98177.97
2017-12-14T05:21:24.090Z,98178.80
2017-12-14T05:22:26.546Z,98175.06
2017-12-14T05:23:29.018Z,98185.52
2017-12-14T05:24:31.467Z,98194.20
2017-12-14T05:25:33.928Z,98193.48
2017-12-14T05:26:36.398Z,98189.36
2017-12-14T05:27:38.868Z,98196.09
2017-12-14T05:28:41.343Z,98206.31
2017-12-14T05:29:43.791Z,98207.78
2017-12-14T05:30:46.242Z,98208.74
2017-12-14T05:31:48.690Z,98217.70
2017-12-14T05:32:51.156Z,98229.02
2017-12-14T05:33:53.622Z,98231.05
2017-12-14T05:34:56.070Z,98228.32
2017-12-14T05:35:58.527Z,98225.34
2017-12-14T05:37:00.979Z,98231.92
2017-12-14T05:38:03.426Z,98229.51
2017-12-14T05:39:05.893Z,98233.77
2017-12-14T05:40:08.338Z,98240.95
2017-12-14T05:41:10.791Z,98242.94
2017-12-14T05:42:13.240Z,98238.26
2017-12-14T05:43:15.705Z,98251.70
2017-12-14T05:44:18.191Z,98251.36
2017-12-14T05:45:20.654Z,98260.27
2017-12-14T05:46:23.106Z,98256.01
2017-12-14T05:47:25.625Z,98261.11
2017-12-14T05:48:28.079Z,98257.34
2017-12-14T05:49:30.555Z,98257.89
2017-12-14T05:50:33.001Z,98258.02
2017-12-14T05:51:35.454Z,98269.32
2017-12-14T05:52:37.922Z,98264.45
2017-12-14T05:53:40.474Z,98277.14
2017-12-14T05:54:42.939Z,98275.95
2017-12-14T05:55:45.405Z,98280.05
2017-12-14T05:56:47.871Z,98284.02
2017-12-14T05:57:50.318Z,98289.09
2017-12-14T05:58:52.771Z,98291.42
2017-12-14T05:59:55.239Z,98297.76
2017-12-14T06:00:57.686Z,98299.86
2017-12-14T06:02:00.132Z,98306.63
2017-12-14T06:03:02.596Z,98303.95
2017-12-14T06:04:05.074Z,98302.90
2017-12-14T06:05:07.541Z,98294.69
2017-12-14T06:06:10.009Z,98302.27
2017-12-14T06:07:12.457Z,98290.98
2017-12-14T06:08:14.916Z,98311.28
2017-12-14T06:09:17.381Z,98308.19
2017-12-14T06:10:19.830Z,98309.52
2017-12-14T06:11:22.294Z,98308.94
2017-12-14T06:12:24.753Z,98314.92
2017-12-14T06:13:27.199Z,98319.67
2017-12-14T06:14:29.658Z,98322.72
2017-12-14T06:15:32.154Z,98324.89
2017-12-14T06:16:34.607Z,98332.98
2017-12-14T06:17:37.054Z,98332.83
2017-12-14T06:18:39.506Z,98334.16
2017-12-14T06:19:42.020Z,98337.70
2017-12-14T06:20:44.505Z,98342.09
2017-12-14T06:21:46.958Z,98335.79
2017-12-14T06:22:49.406Z,98360.28
2017-12-14T06:23:51.894Z,98351.83
2017-12-14T06:24:54.350Z,98353.15
2017-12-14T06:25:56.863Z,98350.70
2017-12-14T06:26:59.314Z,98361.94
2017-12-14T06:28:01.783Z,98372.91
2017-12-14T06:29:04.347Z,98378.55
2017-12-14T06:30:06.818Z,98372.88
2017-12-14T06:31:09.310Z,98371.20
2017-12-14T06:32:11.772Z,98377.61
2017-12-14T06:33:14.241Z,98373.48
2017-12-14T06:34:16.705Z,98380.62
2017-12-14T06:35:19.153Z,98381.82
2017-12-14T06:36:21.618Z,98386.61
2017-12-14T06:37:24.213Z,98390.86
2017-12-14T06:38:26.769Z,98391.66
2017-12-14T06:39:29.249Z,98406.59
2017-12-14T06:40:31.717Z,98399.13
2017-12-14T06:41:34.185Z,98413.91
2017-12-14T06:42:36.639Z,98413.53
2017-12-14T06:43:39.090Z,98410.07
2017-12-14T06:44:41.557Z,98414.05
2017-12-14T06:45:44.021Z,98411.73
2017-12-14T06:46:46.471Z,98422.32
2017-12-14T06:47:48.922Z,98422.50
2017-12-14T06:48:51.385Z,98422.16
2017-12-14T06:49:53.893Z,98426.52
2017-12-14T06:50:56.339Z,98432.17
2017-12-14T06:51:58.792Z,98419.95
2017-12-14T06:53:01.256Z,98434.15
2017-12-14T06:54:03.707Z,98435.88
2017-12-14T06:55:06.158Z,98430.87
2017-12-14T06:56:08.621Z,98425.67
2017-12-14T06:57:11.066Z,98424.32
2017-12-14T06:58:13.588Z,98436.16
2017-12-14T06:59:16.086Z,98433.33
2017-12-14T07:00:18.522Z,98432.26
2017-12-14T07:01:20.974Z,98443.81
2017-12-14T07:02:23.445Z,98445.27
2017-12-14T07:03:28.848Z,98443.70
2017-12-14T07:04:31.307Z,98435.32
2017-12-14T07:05:33.769Z,98445.39
2017-12-14T07:06:36.215Z,98447.13
2017-12-14T07:07:38.677Z,98449.05
2017-12-14T07:08:41.140Z,98453.79
2017-12-14T07:09:43.610Z,98445.81
2017-12-14T07:10:46.070Z,98447.86
2017-12-14T07:11:48.533Z,98453.22
2017-12-14T07:12:51.008Z,98458.63
2017-12-14T07:13:53.481Z,98454.08
2017-12-14T07:14:55.927Z,98457.73
2017-12-14T07:15:58.380Z,98463.84
2017-12-14T07:17:00.822Z,98454.13
2017-12-14T07:18:03.284Z,98461.16
2017-12-14T07:19:05.739Z,98461.59
2017-12-14T07:20:08.192Z,98462.67
2017-12-14T07:21:10.650Z,98459.16
2017-12-14T07:22:13.166Z,98470.91
2017-12-14T07:23:15.662Z,98476.59
2017-12-14T07:24:18.124Z,98473.58
2017-12-14T07:25:20.588Z,98473.28
2017-12-14T07:26:23.091Z,98477.48
2017-12-14T07:27:25.596Z,98470.78
2017-12-14T07:28:28.049Z,98485.52
2017-12-14T07:29:30.520Z,98481.33
2017-12-14T07:30:32.980Z,98486.05
2017-12-14T07:31:35.452Z,98481.03
2017-12-14T07:32:37.922Z,98476.83
2017-12-14T07:33:40.389Z,98483.59
2017-12-14T07:34:42.854Z,98485.63
2017-12-14T07:35:45.303Z,98487.67
2017-12-14T07:36:47.773Z,98496.62
2017-12-14T07:37:50.248Z,98488.58
2017-12-14T07:38:52.695Z,98481.33
2017-12-14T07:39:55.160Z,98483.89
2017-12-14T07:40:57.628Z,98486.73
2017-12-14T07:42:00.092Z,98487.01
2017-12-14T07:43:06.123Z,98483.53
2017-12-14T07:44:20.504Z,98481.30
2017-12-14T07:47:34.979Z,98480.66
2017-12-14T07:48:37.453Z,98481.48
2017-12-14T07:49:39.917Z,98479.03
2017-12-14T07:50:42.421Z,98476.16
2017-12-14T07:51:44.916Z,98477.84
2017-12-14T07:52:47.395Z,98474.83
2017-12-14T07:53:49.874Z,98472.08
2017-12-14T07:54:52.322Z,98477.79
2017-12-14T07:55:54.793Z,98475.86
2017-12-14T07:56:57.306Z,98473.77
2017-12-14T07:57:59.764Z,98477.80
2017-12-14T07:59:02.277Z,98470.80
2017-12-14T08:00:04.726Z,98469.70
2017-12-14T08:01:07.192Z,98459.78
2017-12-14T08:02:09.665Z,98466.50
2017-12-14T08:03:12.124Z,98479.60
2017-12-14T08:04:14.598Z,98468.27
2017-12-14T08:05:17.046Z,98468.59
2017-12-14T08:06:19.549Z,98470.27
2017-12-14T08:07:22.025Z,98462.28
2017-12-14T08:08:24.474Z,98467.39
2017-12-14T08:09:26.937Z,98459.42
2017-12-14T08:10:29.396Z,98465.67
2017-12-14T08:11:31.921Z,98467.52
2017-12-14T08:12:34.426Z,98466.80
2017-12-14T08:13:36.934Z,98469.14
2017-12-14T08:14:39.397Z,98464.41
2017-12-14T08:15:41.992Z,98470.14
2017-12-14T08:16:44.445Z,98464.87
2017-12-14T08:17:46.915Z,98469.08
2017-12-14T08:18:49.430Z,98465.73
2017-12-14T08:19:52.212Z,98467.16
2017-12-14T08:20:54.679Z,98466.06
2017-12-14T08:21:57.134Z,98466.93
2017-12-14T08:22:59.584Z,98473.52
2017-12-14T08:24:02.045Z,98475.24
2017-12-14T08:25:04.512Z,98476.52
2017-12-14T08:26:06.996Z,98480.52
2017-12-14T08:27:09.487Z,98481.84
2017-12-14T08:28:11.943Z,98481.92
2017-12-14T08:29:14.399Z,98478.27
2017-12-14T08:30:16.863Z,98482.14
2017-12-14T08:31:19.326Z,98482.80
2017-12-14T08:32:21.789Z,98485.73
2017-12-14T08:33:24.251Z,98483.34
2017-12-14T08:34:26.712Z,98477.52
2017-12-14T08:35:29.172Z,98488.43
2017-12-14T08:36:31.614Z,98477.22
2017-12-14T08:37:34.086Z,98487.19
2017-12-14T08:38:36.550Z,98477.68
2017-12-14T08:39:39.099Z,98483.16
2017-12-14T08:40:41.569Z,98478.89
2017-12-14T08:41:44.015Z,98483.56
2017-12-14T08:42:46.878Z,98484.63
2017-12-14T08:43:50.368Z,98485.55
2017-12-14T08:44:52.836Z,98488.47
2017-12-14T08:45:55.309Z,98487.50
2017-12-14T08:46:57.758Z,98487.80
2017-12-14T08:48:00.217Z,98489.83
2017-12-14T08:49:02.668Z,98494.70
2017-12-14T08:50:05.114Z,98497.46
2017-12-14T08:51:07.577Z,98505.48
2017-12-14T08:52:10.040Z,98499.61
2017-12-14T08:53:12.486Z,98498.70
2017-12-14T08:54:14.950Z,98499.72
2017-12-14T08:55:17.394Z,98508.28
2017-12-14T08:56:19.858Z,98506.98
2017-12-14T08:57:22.316Z,98518.94
2017-12-14T08:58:24.770Z,98513.58
2017-12-14T08:59:27.223Z,98519.95
2017-12-14T09:00:29.788Z,98524.34
2017-12-14T09:01:32.240Z,98513.94
2017-12-14T09:02:34.720Z,98518.08
2017-12-14T09:03:37.167Z,98511.47
2017-12-14T09:04:39.718Z,98528.53
2017-12-14T09:05:42.181Z,98511.07
2017-12-14T09:06:44.748Z,98516.63
2017-12-14T09:07:47.238Z,98520.35
2017-12-14T09:08:49.683Z,98519.59
2017-12-14T09:09:52.737Z,98511.59
2017-12-14T09:10:55.211Z,98521.90
2017-12-14T09:11:57.655Z,98519.98
2017-12-14T09:13:00.118Z,98519.92
2017-12-14T09:14:02.577Z,98516.45
2017-12-14T09:15:05.079Z,98514.81
2017-12-14T09:16:07.526Z,98511.41
2017-12-14T09:17:09.978Z,98508.95
2017-12-14T09:18:12.474Z,98511.19
2017-12-14T09:19:14.961Z,98516.41
2017-12-14T09:20:17.426Z,98517.28
2017-12-14T09:21:19.958Z,98520.75
2017-12-14T09:22:22.616Z,98527.18
2017-12-14T09:23:25.108Z,98514.77
2017-12-14T09:24:27.568Z,98524.55
2017-12-14T09:25:30.100Z,98531.86
2017-12-14T09:26:32.580Z,98533.11
2017-12-14T09:27:35.125Z,98528.86
2017-12-14T09:28:37.598Z,98522.98
2017-12-14T09:29:40.107Z,98517.72
2017-12-14T09:30:42.675Z,98520.34
2017-12-14T09:31:45.138Z,98537.16
2017-12-14T09:32:47.582Z,98534.42
2017-12-14T09:33:50.026Z,98535.44
2017-12-14T09:34:52.524Z,98535.34
2017-12-14T09:35:55.025Z,98536.95
2017-12-14T09:36:57.493Z,98528.17
2017-12-14T09:38:00.208Z,98530.82
2017-12-14T09:39:02.678Z,98544.23
2017-12-14T09:40:05.136Z,98538.59
2017-12-14T09:41:07.611Z,98542.37
2017-12-14T09:42:10.083Z,98534.54
2017-12-14T09:43:12.546Z,98543.91
2017-12-14T09:44:15.044Z,98539.03
2017-12-14T09:45:17.508Z,98535.19
2017-12-14T09:46:19.969Z,98538.25
2017-12-14T09:47:22.467Z,98551.81
2017-12-14T09:48:25.065Z,98550.41
2017-12-14T09:49:27.535Z,98564.09
2017-12-14T09:50:30.038Z,98545.16
2017-12-14T09:51:32.478Z,98558.52
2017-12-14T09:52:34.931Z,98557.72
2017-12-14T09:53:37.412Z,98556.56
2017-12-14T09:54:39.979Z,98570.98
2017-12-14T09:55:42.441Z,98557.77
2017-12-14T09:56:45.001Z,98556.62
2017-12-14T09:57:47.969Z,98571.30
2017-12-14T09:58:50.378Z,98554.70
2017-12-14T09:59:52.869Z,98560.95
2017-12-14T10:00:55.432Z,98561.31
2017-12-14T10:01:57.894Z,98566.66
2017-12-14T10:03:00.374Z,98555.45
2017-12-14T10:04:02.832Z,98558.41
2017-12-14T10:05:05.328Z,98548.78
2017-12-14T10:06:07.773Z,98556.34
2017-12-14T10:07:10.298Z,98558.93
2017-12-14T10:08:13.022Z,98566.53
2017-12-14T10:09:15.674Z,98556.47
2017-12-14T10:10:18.167Z,98560.96
2017-12-14T10:11:20.718Z,98569.22
2017-12-14T10:12:23.220Z,98561.59
2017-12-14T10:13:26.100Z,98551.81
2017-12-14T10:14:28.559Z,98550.42
2017-12-14T10:15:31.036Z,98556.03
2017-12-14T10:16:33.517Z,98554.52
2017-12-14T10:17:36.029Z,98548.16
2017-12-14T10:18:38.447Z,98547.50
2017-12-14T10:19:40.920Z,98544.63
2017-12-14T10:20:43.434Z,98540.14
2017-12-14T10:21:45.904Z,98538.94
2017-12-14T10:22:48.361Z,98546.72
2017-12-14T10:23:50.821Z,98543.89
2017-12-14T10:24:53.310Z,98553.44
2017-12-14T10:25:55.797Z,98547.92
2017-12-14T10:26:58.238Z,98542.16
2017-12-14T10:28:00.710Z,98549.48
2017-12-14T10:29:03.219Z,98545.98
2017-12-14T10:30:05.694Z,98542.03
2017-12-14T10:31:08.212Z,98544.20
2017-12-14T10:32:10.771Z,98540.84
2017-12-14T10:33:13.219Z,98534.10
2017-12-14T10:34:15.662Z,98535.92
2017-12-14T10:35:18.110Z,98532.50
2017-12-14T10:36:20.570Z,98529.48
2017-12-14T10:37:23.068Z,98536.73
2017-12-14T10:38:25.528Z,98533.39
2017-12-14T10:39:27.992Z,98521.92
2017-12-14T10:40:30.448Z,98533.64
2017-12-14T10:41:32.917Z,98533.94
2017-12-14T10:42:35.363Z,98520.72
2017-12-14T10:43:37.829Z,98531.23
2017-12-14T10:44:40.342Z,98529.55
2017-12-14T10:45:42.796Z,98527.52
2017-12-14T10:46:45.259Z,98533.03
2017-12-14T10:47:47.702Z,98548.27
2017-12-14T10:48:50.146Z,98535.55
2017-12-14T10:49:52.599Z,98526.77
2017-12-14T10:50:55.064Z,98528.36
2017-12-14T10:51:57.552Z,98531.83
2017-12-14T10:53:00.043Z,98534.04
2017-12-14T10:54:02.490Z,98525.47
2017-12-14T10:55:04.943Z,98529.78
2017-12-14T10:56:07.504Z,98523.97
2017-12-14T10:57:10.183Z,98528.36
2017-12-14T10:58:12.807Z,98529.35
2017-12-14T10:59:15.275Z,98525.94
2017-12-14T11:00:17.757Z,98526.84
2017-12-14T11:01:25.859Z,98519.22
2017-12-14T11:02:28.352Z,98529.13
2017-12-14T11:03:30.837Z,98512.69
2017-12-14T11:04:33.308Z,98516.05
2017-12-14T11:05:35.759Z,98517.86
2017-12-14T11:06:38.260Z,98510.41
2017-12-14T11:07:40.749Z,98505.13
2017-12-14T11:08:43.217Z,98510.61
2017-12-14T11:09:45.662Z,98515.70
2017-12-14T11:10:48.115Z,98515.27
2017-12-14T11:11:50.580Z,98516.13
2017-12-14T11:12:53.076Z,98517.81
2017-12-14T11:13:55.530Z,98514.52
2017-12-14T11:14:58.090Z,98517.85
2017-12-14T11:16:00.608Z,98517.39
2017-12-14T11:17:03.067Z,98508.89
2017-12-14T11:18:05.547Z,98509.55
2017-12-14T11:19:07.991Z,98502.70
2017-12-14T11:20:10.451Z,98503.75
2017-12-14T11:21:12.912Z,98518.21
2017-12-14T11:22:15.358Z,98514.11
2017-12-14T11:23:17.830Z,98519.46
2017-12-14T11:24:20.292Z,98509.38
2017-12-14T11:25:22.768Z,98500.81
2017-12-14T11:26:25.229Z,98503.92
2017-12-14T11:27:27.713Z,98510.41
2017-12-14T11:28:30.193Z,98510.89
2017-12-14T11:29:32.653Z,98528.31
2017-12-14T11:30:35.095Z,98510.67
2017-12-14T11:31:37.542Z,98505.84
2017-12-14T11:32:39.990Z,98513.78
2017-12-14T11:33:42.495Z,98505.55
2017-12-14T11:34:44.925Z,98514.78
2017-12-14T11:35:47.448Z,98503.21
2017-12-14T11:36:50.180Z,98514.87
2017-12-14T11:37:52.634Z,98504.88
2017-12-14T11:38:55.179Z,98505.48
2017-12-14T11:39:57.635Z,98513.62
2017-12-14T11:41:00.100Z,98506.13
2017-12-14T11:42:02.560Z,98504.05
2017-12-14T11:43:05.018Z,98502.48
2017-12-14T11:44:07.494Z,98499.18
2017-12-14T11:45:09.961Z,98501.09
2017-12-14T11:46:12.410Z,98500.85
2017-12-14T11:47:14.890Z,98507.54
2017-12-14T11:48:17.342Z,98505.64
2017-12-14T11:49:19.816Z,98507.70
2017-12-14T11:50:22.354Z,98502.19
2017-12-14T11:51:24.812Z,98506.92
2017-12-14T11:52:27.263Z,98505.35
2017-12-14T11:53:29.714Z,98506.61
2017-12-14T11:54:32.199Z,98505.82
2017-12-14T11:55:34.651Z,98498.13
2017-12-14T11:56:37.128Z,98497.82
2017-12-14T11:57:39.570Z,98492.25
2017-12-14T11:58:42.035Z,98498.16
2017-12-14T11:59:44.516Z,98488.45
2017-12-14T12:00:46.967Z,98502.35
2017-12-14T12:01:49.410Z,98491.80
2017-12-14T12:02:51.853Z,98497.45
2017-12-14T12:03:54.312Z,98500.02
2017-12-14T12:04:56.783Z,98495.75
2017-12-14T12:05:59.244Z,98489.66
2017-12-14T12:07:01.721Z,98493.31
2017-12-14T12:09:05.941Z,98487.19
2017-12-14T12:10:08.424Z,98491.75
2017-12-14T12:11:10.885Z,98487.67
2017-12-14T12:12:13.417Z,98487.25
2017-12-14T12:13:15.897Z,98480.64
2017-12-14T12:15:20.122Z,98477.11
2017-12-14T12:16:22.570Z,98477.22
2017-12-14T12:17:25.044Z,98481.61
2017-12-14T12:18:27.491Z,98478.61